sensor_id;sensor_type;location;lat;lon;timestamp;temperature;humidity
23683;DHT22;24897;53.514;10.482;2023-12-04T00:02:29;-0.40;99.90
23683;DHT22;24897;53.514;10.482;2023-12-04T00:05:13;-0.50;99.90
23683;DHT22;24897;53.514;10.482;2023-12-04T00:07:57;-0.50;99.90
23683;DHT22;24897;53.514;10.482;2023-12-04T00:10:42;-0.50;99.90
23683;DHT22;24897;53.514;10.482;2023-12-04T00:13:26;-0.60;99.90
23683;DHT22;24897;53.514;10.482;2023-12-04T00:16:10;-0.60;99.90
23683;DHT22;24897;53.514;10.482;2023-12-04T00:18:54;-0.60;99.90
23683;DHT22;24897;53.514;10.482;2023-12-04T00:21:38;-0.70;99.90
23683;DHT22;24897;53.514;10.482;2023-12-04T00:24:22;-0.70;99.90
23683;DHT22;24897;53.514;10.482;2023-12-04T00:27:06;-0.70;99.90
23683;DHT22;24897;53.514;10.482;2023-12-04T00:29:50;-0.80;99.90
23683;DHT22;24897;53.514;10.482;2023-12-04T00:32:34;-0.80;99.90
23683;DHT22;24897;53.514;10.482;2023-12-04T00:35:18;-0.80;99.90
23683;DHT22;24897;53.514;10.482;2023-12-04T00:38:02;-0.90;99.90
23683;DHT22;24897;53.514;10.482;2023-12-04T00:40:46;-0.90;99.90
23683;DHT22;24897;53.514;10.482;2023-12-04T00:43:31;-0.90;99.90
23683;DHT22;24897;53.514;10.482;2023-12-04T00:46:15;2.20;99.90
23683;DHT22;24897;53.514;10.482;2023-12-04T00:48:59;-1.00;99.90
23683;DHT22;24897;53.514;10.482;2023-12-04T00:51:43;-1.00;99.90
23683;DHT22;24897;53.514;10.482;2023-12-04T00:54:27;-1.00;99.90
23683;DHT22;24897;53.514;10.482;2023-12-04T00:57:10;-1.10;99.90
23683;DHT22;24897;53.514;10.482;2023-12-04T00:59:54;-1.10;99.90
23683;DHT22;24897;53.514;10.482;2023-12-04T01:02:39;-1.10;99.90
23683;DHT22;24897;53.514;10.482;2023-12-04T01:05:24;-1.10;99.90
23683;DHT22;24897;53.514;10.482;2023-12-04T01:08:08;-1.10;99.90
23683;DHT22;24897;53.514;10.482;2023-12-04T01:10:52;-1.10;99.90
23683;DHT22;24897;53.514;10.482;2023-12-04T01:13:36;-1.10;99.90
23683;DHT22;24897;53.514;10.482;2023-12-04T01:16:20;-1.20;99.90
23683;DHT22;24897;53.514;10.482;2023-12-04T01:19:04;-1.20;99.90
23683;DHT22;24897;53.514;10.482;2023-12-04T01:21:49;-1.20;99.90
23683;DHT22;24897;53.514;10.482;2023-12-04T01:24:34;-1.20;99.90
23683;DHT22;24897;53.514;10.482;2023-12-04T01:27:18;-1.30;99.90
23683;DHT22;24897;53.514;10.482;2023-12-04T01:30:03;-1.30;99.90
23683;DHT22;24897;53.514;10.482;2023-12-04T01:32:47;-1.30;99.90
23683;DHT22;24897;53.514;10.482;2023-12-04T01:35:32;-1.30;99.90
23683;DHT22;24897;53.514;10.482;2023-12-04T01:38:16;-1.40;99.90
23683;DHT22;24897;53.514;10.482;2023-12-04T01:41:00;-1.40;99.90
23683;DHT22;24897;53.514;10.482;2023-12-04T01:43:45;-1.40;99.90
23683;DHT22;24897;53.514;10.482;2023-12-04T01:46:30;-1.50;99.90
23683;DHT22;24897;53.514;10.482;2023-12-04T01:49:14;-1.50;99.90
23683;DHT22;24897;53.514;10.482;2023-12-04T01:51:59;-1.40;99.90
23683;DHT22;24897;53.514;10.482;2023-12-04T01:54:43;-1.50;99.90
23683;DHT22;24897;53.514;10.482;2023-12-04T01:57:27;-1.50;99.90
23683;DHT22;24897;53.514;10.482;2023-12-04T02:00:12;-1.60;99.90
23683;DHT22;24897;53.514;10.482;2023-12-04T02:02:58;-1.60;99.90
23683;DHT22;24897;53.514;10.482;2023-12-04T02:05:47;-1.60;99.90
23683;DHT22;24897;53.514;10.482;2023-12-04T02:08:31;-1.70;99.90
23683;DHT22;24897;53.514;10.482;2023-12-04T02:11:16;-1.70;99.90
23683;DHT22;24897;53.514;10.482;2023-12-04T02:14:00;-1.60;99.90
23683;DHT22;24897;53.514;10.482;2023-12-04T02:16:45;-1.70;99.90
23683;DHT22;24897;53.514;10.482;2023-12-04T02:19:29;-1.70;99.90
23683;DHT22;24897;53.514;10.482;2023-12-04T02:22:13;-1.70;99.90
23683;DHT22;24897;53.514;10.482;2023-12-04T02:24:57;-1.90;99.90
23683;DHT22;24897;53.514;10.482;2023-12-04T02:27:50;-1.80;99.90
23683;DHT22;24897;53.514;10.482;2023-12-04T02:30:36;-2.30;99.90
23683;DHT22;24897;53.514;10.482;2023-12-04T02:33:23;-1.80;99.90
23683;DHT22;24897;53.514;10.482;2023-12-04T02:36:10;-1.80;99.90
23683;DHT22;24897;53.514;10.482;2023-12-04T02:38:55;-1.70;99.90
23683;DHT22;24897;53.514;10.482;2023-12-04T02:41:39;-1.80;99.90
23683;DHT22;24897;53.514;10.482;2023-12-04T02:44:23;-1.80;99.90
23683;DHT22;24897;53.514;10.482;2023-12-04T02:47:07;-1.80;99.90
23683;DHT22;24897;53.514;10.482;2023-12-04T02:49:51;-1.90;99.90
23683;DHT22;24897;53.514;10.482;2023-12-04T02:52:35;-1.80;99.90
23683;DHT22;24897;53.514;10.482;2023-12-04T02:55:19;-1.90;99.90
23683;DHT22;24897;53.514;10.482;2023-12-04T02:58:03;-1.90;99.90
23683;DHT22;24897;53.514;10.482;2023-12-04T03:00:47;-1.90;99.90
23683;DHT22;24897;53.514;10.482;2023-12-04T03:03:32;-1.90;99.90
23683;DHT22;24897;53.514;10.482;2023-12-04T03:06:16;-1.90;99.90
23683;DHT22;24897;53.514;10.482;2023-12-04T03:09:00;-1.90;99.90
23683;DHT22;24897;53.514;10.482;2023-12-04T03:11:45;-2.30;99.90
23683;DHT22;24897;53.514;10.482;2023-12-04T03:14:29;-2.00;99.90
23683;DHT22;24897;53.514;10.482;2023-12-04T03:17:13;-2.00;99.90
23683;DHT22;24897;53.514;10.482;2023-12-04T03:19:58;-2.00;99.90
23683;DHT22;24897;53.514;10.482;2023-12-04T03:22:42;-2.00;99.90
23683;DHT22;24897;53.514;10.482;2023-12-04T03:25:26;-2.10;99.90
23683;DHT22;24897;53.514;10.482;2023-12-04T03:28:10;-2.10;99.90
23683;DHT22;24897;53.514;10.482;2023-12-04T03:30:57;-2.10;99.90
23683;DHT22;24897;53.514;10.482;2023-12-04T03:33:41;-1.20;99.90
23683;DHT22;24897;53.514;10.482;2023-12-04T03:36:25;-2.10;99.90
23683;DHT22;24897;53.514;10.482;2023-12-04T03:39:09;-2.10;99.90
23683;DHT22;24897;53.514;10.482;2023-12-04T03:41:53;-2.20;99.90
23683;DHT22;24897;53.514;10.482;2023-12-04T03:44:37;-2.20;99.90
23683;DHT22;24897;53.514;10.482;2023-12-04T03:47:21;-2.20;99.90
23683;DHT22;24897;53.514;10.482;2023-12-04T03:50:07;-2.20;99.90
23683;DHT22;24897;53.514;10.482;2023-12-04T03:52:51;-2.20;99.90
23683;DHT22;24897;53.514;10.482;2023-12-04T03:55:36;-2.20;99.90
23683;DHT22;24897;53.514;10.482;2023-12-04T03:58:20;-2.20;99.90
23683;DHT22;24897;53.514;10.482;2023-12-04T04:01:04;-2.20;99.90
23683;DHT22;24897;53.514;10.482;2023-12-04T04:03:48;-2.20;99.90
23683;DHT22;24897;53.514;10.482;2023-12-04T04:06:32;-2.20;99.90
23683;DHT22;24897;53.514;10.482;2023-12-04T04:09:17;-2.20;99.90
23683;DHT22;24897;53.514;10.482;2023-12-04T04:12:04;-1.70;99.90
23683;DHT22;24897;53.514;10.482;2023-12-04T04:14:48;-2.30;99.90
23683;DHT22;24897;53.514;10.482;2023-12-04T04:17:33;-2.30;99.90
23683;DHT22;24897;53.514;10.482;2023-12-04T04:20:17;-2.30;99.90
23683;DHT22;24897;53.514;10.482;2023-12-04T04:23:02;-2.30;99.90
23683;DHT22;24897;53.514;10.482;2023-12-04T04:25:46;-2.30;99.90
23683;DHT22;24897;53.514;10.482;2023-12-04T04:28:30;-2.30;99.90
23683;DHT22;24897;53.514;10.482;2023-12-04T04:31:14;-2.30;99.90
23683;DHT22;24897;53.514;10.482;2023-12-04T04:33:58;-2.40;99.90
23683;DHT22;24897;53.514;10.482;2023-12-04T04:36:43;-3.00;99.90
23683;DHT22;24897;53.514;10.482;2023-12-04T04:39:28;-2.40;99.90
23683;DHT22;24897;53.514;10.482;2023-12-04T04:42:11;-2.40;99.90
23683;DHT22;24897;53.514;10.482;2023-12-04T04:44:55;-2.40;99.90
23683;DHT22;24897;53.514;10.482;2023-12-04T04:47:39;-2.40;99.90
23683;DHT22;24897;53.514;10.482;2023-12-04T04:50:24;-2.40;99.90
23683;DHT22;24897;53.514;10.482;2023-12-04T04:53:08;-2.50;99.90
23683;DHT22;24897;53.514;10.482;2023-12-04T04:55:52;-2.50;99.90
23683;DHT22;24897;53.514;10.482;2023-12-04T04:58:36;-2.50;99.90
23683;DHT22;24897;53.514;10.482;2023-12-04T05:01:20;-2.50;99.90
23683;DHT22;24897;53.514;10.482;2023-12-04T05:04:04;-2.50;99.90
23683;DHT22;24897;53.514;10.482;2023-12-04T05:06:48;-2.50;99.90
23683;DHT22;24897;53.514;10.482;2023-12-04T05:09:32;-2.40;99.90
23683;DHT22;24897;53.514;10.482;2023-12-04T05:12:16;-2.50;99.90
23683;DHT22;24897;53.514;10.482;2023-12-04T05:15:00;-2.40;99.90
23683;DHT22;24897;53.514;10.482;2023-12-04T05:17:44;-2.40;99.90
23683;DHT22;24897;53.514;10.482;2023-12-04T05:20:28;-2.40;99.90
23683;DHT22;24897;53.514;10.482;2023-12-04T05:23:12;-2.40;99.90
23683;DHT22;24897;53.514;10.482;2023-12-04T05:25:56;-2.50;99.90
23683;DHT22;24897;53.514;10.482;2023-12-04T05:28:40;-2.50;99.90
23683;DHT22;24897;53.514;10.482;2023-12-04T05:31:24;0.20;99.90
23683;DHT22;24897;53.514;10.482;2023-12-04T05:34:09;-2.50;99.90
23683;DHT22;24897;53.514;10.482;2023-12-04T05:36:53;-2.50;99.90
23683;DHT22;24897;53.514;10.482;2023-12-04T05:39:37;-2.50;99.90
23683;DHT22;24897;53.514;10.482;2023-12-04T05:42:21;-2.30;99.90
23683;DHT22;24897;53.514;10.482;2023-12-04T05:45:05;-2.50;99.90
23683;DHT22;24897;53.514;10.482;2023-12-04T05:47:51;-2.30;99.90
23683;DHT22;24897;53.514;10.482;2023-12-04T05:50:36;-2.50;99.90
23683;DHT22;24897;53.514;10.482;2023-12-04T05:53:20;-2.50;99.90
23683;DHT22;24897;53.514;10.482;2023-12-04T05:56:05;-2.50;99.90
23683;DHT22;24897;53.514;10.482;2023-12-04T05:58:51;-2.40;99.90
23683;DHT22;24897;53.514;10.482;2023-12-04T06:01:36;-2.30;99.90
23683;DHT22;24897;53.514;10.482;2023-12-04T06:04:20;-2.30;99.90
23683;DHT22;24897;53.514;10.482;2023-12-04T06:07:05;-2.30;99.90
23683;DHT22;24897;53.514;10.482;2023-12-04T06:09:50;-2.20;99.90
23683;DHT22;24897;53.514;10.482;2023-12-04T06:12:34;-2.20;99.90
23683;DHT22;24897;53.514;10.482;2023-12-04T06:15:18;-2.20;99.90
23683;DHT22;24897;53.514;10.482;2023-12-04T06:18:03;-2.10;99.90
23683;DHT22;24897;53.514;10.482;2023-12-04T06:20:48;-2.10;99.90
23683;DHT22;24897;53.514;10.482;2023-12-04T06:23:33;-2.10;99.90
23683;DHT22;24897;53.514;10.482;2023-12-04T06:26:17;-2.10;99.90
23683;DHT22;24897;53.514;10.482;2023-12-04T06:29:02;-2.00;99.90
23683;DHT22;24897;53.514;10.482;2023-12-04T06:31:47;-2.10;99.90
23683;DHT22;24897;53.514;10.482;2023-12-04T06:34:31;-2.00;99.90
23683;DHT22;24897;53.514;10.482;2023-12-04T06:37:16;-2.00;99.90
23683;DHT22;24897;53.514;10.482;2023-12-04T06:40:00;-2.00;99.90
23683;DHT22;24897;53.514;10.482;2023-12-04T06:42:46;-1.90;99.90
23683;DHT22;24897;53.514;10.482;2023-12-04T06:45:31;-2.00;99.90
23683;DHT22;24897;53.514;10.482;2023-12-04T06:48:16;-1.90;99.90
23683;DHT22;24897;53.514;10.482;2023-12-04T06:51:01;-1.90;99.90
23683;DHT22;24897;53.514;10.482;2023-12-04T06:53:45;-1.90;99.90
23683;DHT22;24897;53.514;10.482;2023-12-04T06:56:29;-1.80;99.90
23683;DHT22;24897;53.514;10.482;2023-12-04T06:59:13;-2.10;99.90
23683;DHT22;24897;53.514;10.482;2023-12-04T07:01:57;-1.80;99.90
23683;DHT22;24897;53.514;10.482;2023-12-04T07:04:42;-1.80;99.90
23683;DHT22;24897;53.514;10.482;2023-12-04T07:07:26;-1.80;99.90
23683;DHT22;24897;53.514;10.482;2023-12-04T07:10:10;-1.80;99.90
23683;DHT22;24897;53.514;10.482;2023-12-04T07:12:58;-1.80;99.90
23683;DHT22;24897;53.514;10.482;2023-12-04T07:15:42;-1.70;99.90
23683;DHT22;24897;53.514;10.482;2023-12-04T07:18:26;-1.70;99.90
23683;DHT22;24897;53.514;10.482;2023-12-04T07:21:11;-1.70;99.90
23683;DHT22;24897;53.514;10.482;2023-12-04T07:23:55;-1.70;99.90
23683;DHT22;24897;53.514;10.482;2023-12-04T07:26:39;-1.60;99.90
23683;DHT22;24897;53.514;10.482;2023-12-04T07:29:23;-1.60;99.90
23683;DHT22;24897;53.514;10.482;2023-12-04T07:32:07;-1.60;99.90
23683;DHT22;24897;53.514;10.482;2023-12-04T07:34:51;-1.60;99.90
23683;DHT22;24897;53.514;10.482;2023-12-04T07:37:35;-1.60;99.90
23683;DHT22;24897;53.514;10.482;2023-12-04T07:40:19;-1.60;99.90
23683;DHT22;24897;53.514;10.482;2023-12-04T07:43:06;-1.50;99.90
23683;DHT22;24897;53.514;10.482;2023-12-04T07:45:50;-1.50;99.90
23683;DHT22;24897;53.514;10.482;2023-12-04T07:48:34;-1.90;99.90
23683;DHT22;24897;53.514;10.482;2023-12-04T07:51:19;-1.50;99.90
23683;DHT22;24897;53.514;10.482;2023-12-04T07:54:04;-1.50;99.90
23683;DHT22;24897;53.514;10.482;2023-12-04T07:56:48;-1.50;99.90
23683;DHT22;24897;53.514;10.482;2023-12-04T07:59:32;-1.50;99.90
23683;DHT22;24897;53.514;10.482;2023-12-04T08:02:16;-1.30;99.90
23683;DHT22;24897;53.514;10.482;2023-12-04T08:05:00;-1.40;99.90
23683;DHT22;24897;53.514;10.482;2023-12-04T08:07:44;-1.40;99.90
23683;DHT22;24897;53.514;10.482;2023-12-04T08:10:29;-1.30;99.90
23683;DHT22;24897;53.514;10.482;2023-12-04T08:13:13;-1.20;99.90
23683;DHT22;24897;53.514;10.482;2023-12-04T08:15:57;-1.20;99.90
23683;DHT22;24897;53.514;10.482;2023-12-04T08:18:41;-1.20;99.90
23683;DHT22;24897;53.514;10.482;2023-12-04T08:21:25;-1.20;99.90
23683;DHT22;24897;53.514;10.482;2023-12-04T08:24:09;-2.20;99.90
23683;DHT22;24897;53.514;10.482;2023-12-04T08:26:53;-1.10;99.90
23683;DHT22;24897;53.514;10.482;2023-12-04T08:29:39;-1.10;99.90
23683;DHT22;24897;53.514;10.482;2023-12-04T08:32:24;-1.10;99.90
23683;DHT22;24897;53.514;10.482;2023-12-04T08:35:10;-1.00;99.90
23683;DHT22;24897;53.514;10.482;2023-12-04T08:37:54;-1.00;99.90
23683;DHT22;24897;53.514;10.482;2023-12-04T08:40:39;-1.00;99.90
23683;DHT22;24897;53.514;10.482;2023-12-04T08:43:24;-1.50;99.90
23683;DHT22;24897;53.514;10.482;2023-12-04T08:46:12;-1.00;99.90
23683;DHT22;24897;53.514;10.482;2023-12-04T08:48:56;-0.90;99.90
23683;DHT22;24897;53.514;10.482;2023-12-04T08:51:40;-0.90;99.90
23683;DHT22;24897;53.514;10.482;2023-12-04T08:54:24;-0.90;99.90
23683;DHT22;24897;53.514;10.482;2023-12-04T08:57:08;-0.90;99.90
23683;DHT22;24897;53.514;10.482;2023-12-04T08:59:53;-0.80;99.90
23683;DHT22;24897;53.514;10.482;2023-12-04T09:02:37;-0.80;99.90
23683;DHT22;24897;53.514;10.482;2023-12-04T09:05:21;-0.80;99.90
23683;DHT22;24897;53.514;10.482;2023-12-04T09:08:06;-0.80;99.90
23683;DHT22;24897;53.514;10.482;2023-12-04T09:10:51;-0.80;99.90
23683;DHT22;24897;53.514;10.482;2023-12-04T09:13:35;-0.70;99.90
23683;DHT22;24897;53.514;10.482;2023-12-04T09:16:19;-0.60;99.90
23683;DHT22;24897;53.514;10.482;2023-12-04T09:19:03;-0.80;99.90
23683;DHT22;24897;53.514;10.482;2023-12-04T09:21:47;-0.70;99.90
23683;DHT22;24897;53.514;10.482;2023-12-04T09:24:31;-0.70;99.90
23683;DHT22;24897;53.514;10.482;2023-12-04T09:27:16;-0.70;99.90
23683;DHT22;24897;53.514;10.482;2023-12-04T09:30:01;-0.60;99.90
23683;DHT22;24897;53.514;10.482;2023-12-04T09:32:45;-0.70;99.90
23683;DHT22;24897;53.514;10.482;2023-12-04T09:35:30;-0.50;99.90
23683;DHT22;24897;53.514;10.482;2023-12-04T09:38:14;-0.60;99.90
23683;DHT22;24897;53.514;10.482;2023-12-04T09:40:59;-0.50;99.90
23683;DHT22;24897;53.514;10.482;2023-12-04T09:43:46;-0.50;99.90
23683;DHT22;24897;53.514;10.482;2023-12-04T09:46:31;-0.60;99.90
23683;DHT22;24897;53.514;10.482;2023-12-04T09:49:16;-0.50;99.90
23683;DHT22;24897;53.514;10.482;2023-12-04T09:52:02;-0.50;99.90
23683;DHT22;24897;53.514;10.482;2023-12-04T09:54:47;-0.50;99.90
23683;DHT22;24897;53.514;10.482;2023-12-04T09:57:31;-0.40;99.90
23683;DHT22;24897;53.514;10.482;2023-12-04T10:00:15;-0.40;99.90
23683;DHT22;24897;53.514;10.482;2023-12-04T10:03:00;-0.40;99.90
23683;DHT22;24897;53.514;10.482;2023-12-04T10:05:46;-0.50;99.90
23683;DHT22;24897;53.514;10.482;2023-12-04T10:08:30;-0.40;99.90
23683;DHT22;24897;53.514;10.482;2023-12-04T10:11:14;-0.30;99.90
23683;DHT22;24897;53.514;10.482;2023-12-04T10:13:59;-0.10;99.90
23683;DHT22;24897;53.514;10.482;2023-12-04T10:16:43;-0.10;99.90
23683;DHT22;24897;53.514;10.482;2023-12-04T10:19:28;-0.10;99.90
23683;DHT22;24897;53.514;10.482;2023-12-04T10:22:15;-0.10;99.90
23683;DHT22;24897;53.514;10.482;2023-12-04T10:25:14;-0.10;99.90
23683;DHT22;24897;53.514;10.482;2023-12-04T10:28:10;-0.10;99.90
23683;DHT22;24897;53.514;10.482;2023-12-04T10:30:54;0.00;99.90
23683;DHT22;24897;53.514;10.482;2023-12-04T10:33:40;0.00;99.90
23683;DHT22;24897;53.514;10.482;2023-12-04T10:36:25;0.00;99.90
23683;DHT22;24897;53.514;10.482;2023-12-04T10:39:09;0.10;99.90
23683;DHT22;24897;53.514;10.482;2023-12-04T10:42:01;0.00;99.90
23683;DHT22;24897;53.514;10.482;2023-12-04T10:44:46;0.00;99.90
23683;DHT22;24897;53.514;10.482;2023-12-04T10:47:30;0.10;99.90
23683;DHT22;24897;53.514;10.482;2023-12-04T10:50:15;0.10;99.90
23683;DHT22;24897;53.514;10.482;2023-12-04T10:53:08;0.20;99.90
23683;DHT22;24897;53.514;10.482;2023-12-04T10:55:56;0.20;99.90
23683;DHT22;24897;53.514;10.482;2023-12-04T10:58:41;0.20;99.90
23683;DHT22;24897;53.514;10.482;2023-12-04T11:01:26;0.20;99.90
23683;DHT22;24897;53.514;10.482;2023-12-04T11:04:16;0.30;99.90
23683;DHT22;24897;53.514;10.482;2023-12-04T11:07:03;0.20;99.90
23683;DHT22;24897;53.514;10.482;2023-12-04T11:09:50;-0.40;99.90
23683;DHT22;24897;53.514;10.482;2023-12-04T11:12:34;0.30;99.90
23683;DHT22;24897;53.514;10.482;2023-12-04T11:15:22;0.40;99.90
23683;DHT22;24897;53.514;10.482;2023-12-04T11:18:07;0.30;99.90
23683;DHT22;24897;53.514;10.482;2023-12-04T11:21:05;0.40;99.90
23683;DHT22;24897;53.514;10.482;2023-12-04T11:23:51;0.30;99.90
23683;DHT22;24897;53.514;10.482;2023-12-04T11:26:35;0.30;99.90
23683;DHT22;24897;53.514;10.482;2023-12-04T11:29:20;0.30;99.90
23683;DHT22;24897;53.514;10.482;2023-12-04T11:32:06;0.40;99.90
23683;DHT22;24897;53.514;10.482;2023-12-04T11:34:53;0.40;99.90
23683;DHT22;24897;53.514;10.482;2023-12-04T11:37:38;0.30;99.90
23683;DHT22;24897;53.514;10.482;2023-12-04T11:40:22;0.30;99.90
23683;DHT22;24897;53.514;10.482;2023-12-04T11:43:26;0.40;99.90
23683;DHT22;24897;53.514;10.482;2023-12-04T11:46:11;0.40;99.90
23683;DHT22;24897;53.514;10.482;2023-12-04T11:52:09;0.40;99.90
23683;DHT22;24897;53.514;10.482;2023-12-04T11:55:02;0.30;99.90
23683;DHT22;24897;53.514;10.482;2023-12-04T11:57:50;0.50;99.90
23683;DHT22;24897;53.514;10.482;2023-12-04T12:00:35;0.40;99.90
23683;DHT22;24897;53.514;10.482;2023-12-04T12:03:21;0.40;99.90
23683;DHT22;24897;53.514;10.482;2023-12-04T12:06:06;0.50;99.90
23683;DHT22;24897;53.514;10.482;2023-12-04T12:08:51;0.50;99.90
23683;DHT22;24897;53.514;10.482;2023-12-04T12:11:36;0.50;99.90
23683;DHT22;24897;53.514;10.482;2023-12-04T12:14:21;0.40;99.90
23683;DHT22;24897;53.514;10.482;2023-12-04T12:17:05;0.40;99.90
23683;DHT22;24897;53.514;10.482;2023-12-04T12:19:49;0.40;99.90
23683;DHT22;24897;53.514;10.482;2023-12-04T12:22:35;0.50;99.90
23683;DHT22;24897;53.514;10.482;2023-12-04T12:25:20;0.60;99.90
23683;DHT22;24897;53.514;10.482;2023-12-04T12:28:07;0.60;99.90
23683;DHT22;24897;53.514;10.482;2023-12-04T12:30:52;0.70;99.90
23683;DHT22;24897;53.514;10.482;2023-12-04T12:33:39;0.60;99.90
23683;DHT22;24897;53.514;10.482;2023-12-04T12:36:24;0.60;99.90
23683;DHT22;24897;53.514;10.482;2023-12-04T12:39:08;0.70;99.90
23683;DHT22;24897;53.514;10.482;2023-12-04T12:41:52;0.70;99.90
23683;DHT22;24897;53.514;10.482;2023-12-04T12:44:40;0.60;99.90
23683;DHT22;24897;53.514;10.482;2023-12-04T12:47:25;0.60;99.90
23683;DHT22;24897;53.514;10.482;2023-12-04T12:50:09;0.60;99.90
23683;DHT22;24897;53.514;10.482;2023-12-04T12:52:57;0.60;99.90
23683;DHT22;24897;53.514;10.482;2023-12-04T12:55:41;0.70;99.90
23683;DHT22;24897;53.514;10.482;2023-12-04T12:58:27;0.60;99.90
23683;DHT22;24897;53.514;10.482;2023-12-04T13:01:12;0.60;99.90
23683;DHT22;24897;53.514;10.482;2023-12-04T13:03:56;0.60;99.90
23683;DHT22;24897;53.514;10.482;2023-12-04T13:06:41;0.80;99.90
23683;DHT22;24897;53.514;10.482;2023-12-04T13:09:25;0.70;99.90
23683;DHT22;24897;53.514;10.482;2023-12-04T13:12:09;0.70;99.90
23683;DHT22;24897;53.514;10.482;2023-12-04T13:14:54;0.70;99.90
23683;DHT22;24897;53.514;10.482;2023-12-04T13:17:38;0.60;99.90
23683;DHT22;24897;53.514;10.482;2023-12-04T13:20:22;0.70;99.90
23683;DHT22;24897;53.514;10.482;2023-12-04T13:23:07;0.70;99.90
23683;DHT22;24897;53.514;10.482;2023-12-04T13:25:51;0.70;99.90
23683;DHT22;24897;53.514;10.482;2023-12-04T13:28:36;0.50;99.90
23683;DHT22;24897;53.514;10.482;2023-12-04T13:31:20;0.80;99.90
23683;DHT22;24897;53.514;10.482;2023-12-04T13:34:04;0.70;99.90
23683;DHT22;24897;53.514;10.482;2023-12-04T13:36:50;0.70;99.90
23683;DHT22;24897;53.514;10.482;2023-12-04T13:39:34;0.70;99.90
23683;DHT22;24897;53.514;10.482;2023-12-04T13:42:42;0.60;99.90
23683;DHT22;24897;53.514;10.482;2023-12-04T13:45:45;0.50;99.90
23683;DHT22;24897;53.514;10.482;2023-12-04T13:48:29;0.60;99.90
23683;DHT22;24897;53.514;10.482;2023-12-04T13:51:13;0.50;99.90
23683;DHT22;24897;53.514;10.482;2023-12-04T13:53:58;0.60;99.90
23683;DHT22;24897;53.514;10.482;2023-12-04T13:56:53;0.60;99.90
23683;DHT22;24897;53.514;10.482;2023-12-04T13:59:38;0.50;99.90
23683;DHT22;24897;53.514;10.482;2023-12-04T14:02:23;0.50;99.90
23683;DHT22;24897;53.514;10.482;2023-12-04T14:05:07;0.40;99.90
23683;DHT22;24897;53.514;10.482;2023-12-04T14:07:51;0.40;99.90
23683;DHT22;24897;53.514;10.482;2023-12-04T14:10:36;0.40;99.90
23683;DHT22;24897;53.514;10.482;2023-12-04T14:13:21;0.40;99.90
23683;DHT22;24897;53.514;10.482;2023-12-04T14:16:05;0.40;99.90
23683;DHT22;24897;53.514;10.482;2023-12-04T14:18:50;0.40;99.90
23683;DHT22;24897;53.514;10.482;2023-12-04T14:21:34;0.40;99.90
23683;DHT22;24897;53.514;10.482;2023-12-04T14:24:18;0.40;99.90
23683;DHT22;24897;53.514;10.482;2023-12-04T14:27:02;0.40;99.90
23683;DHT22;24897;53.514;10.482;2023-12-04T14:29:46;0.40;99.90
23683;DHT22;24897;53.514;10.482;2023-12-04T14:32:31;0.40;99.90
23683;DHT22;24897;53.514;10.482;2023-12-04T14:35:15;0.40;99.90
23683;DHT22;24897;53.514;10.482;2023-12-04T14:38:00;0.40;99.90
23683;DHT22;24897;53.514;10.482;2023-12-04T14:40:44;0.40;99.90
23683;DHT22;24897;53.514;10.482;2023-12-04T14:43:28;0.40;99.90
23683;DHT22;24897;53.514;10.482;2023-12-04T14:46:12;0.40;99.90
23683;DHT22;24897;53.514;10.482;2023-12-04T14:48:56;0.40;99.90
23683;DHT22;24897;53.514;10.482;2023-12-04T14:51:40;0.40;99.90
23683;DHT22;24897;53.514;10.482;2023-12-04T14:54:25;0.30;99.90
23683;DHT22;24897;53.514;10.482;2023-12-04T14:57:29;0.30;99.90
23683;DHT22;24897;53.514;10.482;2023-12-04T15:00:26;0.30;99.90
23683;DHT22;24897;53.514;10.482;2023-12-04T15:03:29;0.30;99.90
23683;DHT22;24897;53.514;10.482;2023-12-04T15:06:32;0.30;99.90
23683;DHT22;24897;53.514;10.482;2023-12-04T15:09:25;0.30;99.90
23683;DHT22;24897;53.514;10.482;2023-12-04T15:12:25;0.30;99.90
23683;DHT22;24897;53.514;10.482;2023-12-04T15:15:30;0.30;99.90
23683;DHT22;24897;53.514;10.482;2023-12-04T15:18:20;0.30;99.90
23683;DHT22;24897;53.514;10.482;2023-12-04T15:21:31;0.30;99.90
23683;DHT22;24897;53.514;10.482;2023-12-04T15:24:15;0.20;99.90
23683;DHT22;24897;53.514;10.482;2023-12-04T15:26:59;0.20;99.90
23683;DHT22;24897;53.514;10.482;2023-12-04T15:29:44;0.20;99.90
23683;DHT22;24897;53.514;10.482;2023-12-04T15:32:28;0.30;99.90
23683;DHT22;24897;53.514;10.482;2023-12-04T15:35:12;0.20;99.90
23683;DHT22;24897;53.514;10.482;2023-12-04T15:37:56;0.10;99.90
23683;DHT22;24897;53.514;10.482;2023-12-04T15:40:40;0.10;99.90
23683;DHT22;24897;53.514;10.482;2023-12-04T15:43:25;0.20;99.90
23683;DHT22;24897;53.514;10.482;2023-12-04T15:46:09;0.20;99.90
23683;DHT22;24897;53.514;10.482;2023-12-04T15:48:53;0.20;99.90
23683;DHT22;24897;53.514;10.482;2023-12-04T15:51:37;0.30;99.90
23683;DHT22;24897;53.514;10.482;2023-12-04T15:54:22;0.30;99.90
23683;DHT22;24897;53.514;10.482;2023-12-04T15:57:05;0.40;99.90
23683;DHT22;24897;53.514;10.482;2023-12-04T15:59:52;0.40;99.90
23683;DHT22;24897;53.514;10.482;2023-12-04T16:02:37;0.40;99.90
23683;DHT22;24897;53.514;10.482;2023-12-04T16:05:21;0.40;99.90
23683;DHT22;24897;53.514;10.482;2023-12-04T16:08:06;0.40;99.90
23683;DHT22;24897;53.514;10.482;2023-12-04T16:10:51;0.50;99.90
23683;DHT22;24897;53.514;10.482;2023-12-04T16:13:35;0.50;99.90
23683;DHT22;24897;53.514;10.482;2023-12-04T16:16:20;0.50;99.90
23683;DHT22;24897;53.514;10.482;2023-12-04T16:19:04;0.60;99.90
23683;DHT22;24897;53.514;10.482;2023-12-04T16:21:48;0.50;99.90
23683;DHT22;24897;53.514;10.482;2023-12-04T16:24:32;0.50;99.90
23683;DHT22;24897;53.514;10.482;2023-12-04T16:27:16;0.60;99.90
23683;DHT22;24897;53.514;10.482;2023-12-04T16:30:01;0.60;99.90
23683;DHT22;24897;53.514;10.482;2023-12-04T16:32:45;0.60;99.90
23683;DHT22;24897;53.514;10.482;2023-12-04T16:35:30;0.60;99.90
23683;DHT22;24897;53.514;10.482;2023-12-04T16:38:14;0.60;99.90
23683;DHT22;24897;53.514;10.482;2023-12-04T16:40:58;0.70;99.90
23683;DHT22;24897;53.514;10.482;2023-12-04T16:43:43;0.70;99.90
23683;DHT22;24897;53.514;10.482;2023-12-04T16:46:27;0.70;99.90
23683;DHT22;24897;53.514;10.482;2023-12-04T16:49:12;0.70;99.90
23683;DHT22;24897;53.514;10.482;2023-12-04T16:52:00;0.70;99.90
23683;DHT22;24897;53.514;10.482;2023-12-04T16:54:44;0.70;99.90
23683;DHT22;24897;53.514;10.482;2023-12-04T16:57:28;0.70;99.90
23683;DHT22;24897;53.514;10.482;2023-12-04T17:00:13;0.70;99.90
23683;DHT22;24897;53.514;10.482;2023-12-04T17:02:57;0.70;99.90
23683;DHT22;24897;53.514;10.482;2023-12-04T17:05:41;0.70;99.90
23683;DHT22;24897;53.514;10.482;2023-12-04T17:08:25;0.70;99.90
23683;DHT22;24897;53.514;10.482;2023-12-04T17:11:09;0.70;99.90
23683;DHT22;24897;53.514;10.482;2023-12-04T17:13:53;0.70;99.90
23683;DHT22;24897;53.514;10.482;2023-12-04T17:16:38;0.70;99.90
23683;DHT22;24897;53.514;10.482;2023-12-04T17:19:23;0.70;99.90